createdAt,value
2022-09-03T00:00:35.384Z,90.88
2022-09-03T00:01:35.341Z,90.79
2022-09-03T00:02:35.270Z,90.22
2022-09-03T00:03:35.150Z,91.13
2022-09-03T00:04:35.067Z,91.69
2022-09-03T00:05:34.984Z,91.79
2022-09-03T00:06:34.911Z,92.98
2022-09-03T00:07:34.835Z,92.88
2022-09-03T00:08:34.799Z,93.27
2022-09-03T00:09:34.671Z,92.98
2022-09-03T00:10:34.593Z,92.36
2022-09-03T00:11:34.515Z,91.69
2022-09-03T00:12:34.438Z,91.50
2022-09-03T00:13:34.353Z,91.69
2022-09-03T00:14:34.278Z,91.50
2022-09-03T00:15:34.228Z,91.88
2022-09-03T00:16:34.122Z,91.60
2022-09-03T00:17:34.050Z,92.08
2022-09-03T00:18:33.966Z,92.65
2022-09-03T00:19:33.888Z,92.74
2022-09-03T00:20:33.808Z,92.93
2022-09-03T00:21:33.728Z,92.55
2022-09-03T00:22:33.650Z,93.60
2022-09-03T00:23:33.567Z,93.70
2022-09-03T00:24:33.492Z,93.41
2022-09-03T00:25:33.414Z,93.22
2022-09-03T00:26:33.335Z,93.51
2022-09-03T00:27:33.252Z,93.60
2022-09-03T00:28:33.175Z,93.93
2022-09-03T00:29:33.098Z,93.93
2022-09-03T00:30:33.024Z,92.79
2022-09-03T00:31:33.118Z,92.60
2022-09-03T00:32:32.860Z,93.46
2022-09-03T00:33:32.779Z,93.46
2022-09-03T00:34:32.703Z,93.84
2022-09-03T00:35:32.623Z,94.46
2022-09-03T00:36:32.550Z,94.17
2022-09-03T00:37:37.110Z,95.12
2022-09-03T00:38:32.386Z,94.46
2022-09-03T00:39:32.389Z,94.46
2022-09-03T00:40:32.225Z,93.88
2022-09-03T00:41:32.152Z,93.32
2022-09-03T00:42:32.073Z,91.88
2022-09-03T00:43:31.988Z,92.08
2022-09-03T00:44:31.914Z,92.74
2022-09-03T00:45:31.834Z,93.08
2022-09-03T00:46:31.804Z,93.08
2022-09-03T00:47:31.680Z,93.37
2022-09-03T00:48:31.849Z,93.84
2022-09-03T00:49:31.515Z,94.32
2022-09-03T00:50:31.446Z,94.89
2022-09-03T00:51:31.356Z,94.51
2022-09-03T00:52:33.688Z,93.88
2022-09-03T00:53:31.199Z,94.41
2022-09-03T00:54:31.125Z,94.03
2022-09-03T00:55:31.046Z,94.60
2022-09-03T00:56:30.963Z,95.03
2022-09-03T00:57:30.880Z,95.03
2022-09-03T00:58:30.811Z,93.79
2022-09-03T00:59:30.721Z,93.60
2022-09-03T01:00:30.650Z,92.79
2022-09-03T01:01:30.720Z,92.46
2022-09-03T01:02:30.588Z,92.03
2022-09-03T01:03:30.409Z,92.89
2022-09-03T01:04:30.331Z,92.93
2022-09-03T01:05:30.251Z,93.03
2022-09-03T01:06:30.169Z,92.74
2022-09-03T01:07:30.092Z,92.89
2022-09-03T01:08:30.017Z,91.50
2022-09-03T01:09:29.932Z,91.94
2022-09-03T01:10:29.853Z,93.55
2022-09-03T01:11:29.776Z,93.46
2022-09-03T01:12:29.709Z,93.27
2022-09-03T01:13:29.618Z,93.51
2022-09-03T01:14:29.541Z,93.93
2022-09-03T01:15:29.530Z,94.41
2022-09-03T01:16:29.382Z,94.41
2022-09-03T01:17:29.310Z,93.84
2022-09-03T01:18:29.222Z,93.74
2022-09-03T01:19:29.145Z,93.65
2022-09-03T01:20:29.066Z,93.65
2022-09-03T01:21:28.984Z,93.74
2022-09-03T01:22:28.906Z,93.93
2022-09-03T01:23:28.828Z,94.79
2022-09-03T01:24:28.748Z,94.22
2022-09-03T01:25:28.668Z,93.27
2022-09-03T01:26:28.585Z,93.55
2022-09-03T01:27:28.509Z,94.13
2022-09-03T01:28:28.442Z,93.74
2022-09-03T01:29:28.350Z,94.03
2022-09-03T01:30:28.271Z,94.13
2022-09-03T01:31:28.221Z,94.22
2022-09-03T01:32:28.114Z,93.93
2022-09-03T01:33:28.032Z,93.08
2022-09-03T01:34:27.959Z,91.94
2022-09-03T01:35:27.878Z,91.94
2022-09-03T01:36:27.797Z,92.98
2022-09-03T01:37:27.719Z,93.37
2022-09-03T01:38:27.636Z,93.93
2022-09-03T01:39:27.684Z,94.03
2022-09-03T01:40:27.479Z,94.03
2022-09-03T01:41:27.400Z,93.46
2022-09-03T01:42:27.323Z,92.98
2022-09-03T01:43:27.241Z,94.32
2022-09-03T01:44:27.163Z,94.13
2022-09-03T01:45:27.079Z,94.22
2022-09-03T01:46:27.056Z,94.51
2022-09-03T01:47:26.930Z,95.27
2022-09-03T01:48:26.850Z,95.65
2022-09-03T01:49:26.763Z,95.75
2022-09-03T01:50:26.684Z,95.17
2022-09-03T01:51:26.613Z,95.36
2022-09-03T01:52:26.525Z,95.36
2022-09-03T01:53:26.444Z,95.65
2022-09-03T01:54:26.378Z,96.03
2022-09-03T01:55:26.294Z,95.65
2022-09-03T01:56:26.212Z,95.36
2022-09-03T01:57:35.461Z,95.27
2022-09-03T01:58:26.051Z,94.70
2022-09-03T01:59:25.968Z,95.08
2022-09-03T02:00:25.893Z,95.46
2022-09-03T02:01:25.864Z,94.98
2022-09-03T02:02:25.906Z,94.89
2022-09-03T02:03:25.653Z,95.46
2022-09-03T02:04:25.572Z,95.84
2022-09-03T02:05:25.499Z,96.80
2022-09-03T02:06:25.416Z,96.60
2022-09-03T02:07:25.340Z,96.32
2022-09-03T02:08:25.465Z,97.22
2022-09-03T02:09:25.178Z,97.89
2022-09-03T02:10:25.102Z,97.65
2022-09-03T02:11:25.018Z,97.79
2022-09-03T02:12:24.945Z,97.36
2022-09-03T02:13:24.860Z,96.84
2022-09-03T02:14:24.782Z,95.27
2022-09-03T02:15:24.787Z,94.17
2022-09-03T02:16:24.626Z,93.22
2022-09-03T02:17:24.544Z,93.89
2022-09-03T02:18:24.517Z,93.41
2022-09-03T02:19:24.386Z,95.22
2022-09-03T02:20:24.303Z,95.12
2022-09-03T02:21:24.229Z,95.41
2022-09-03T02:22:24.147Z,95.03
2022-09-03T02:23:28.257Z,95.79
2022-09-03T02:24:23.987Z,97.31
2022-09-03T02:25:23.904Z,98.84
2022-09-03T02:26:23.841Z,98.27
2022-09-03T02:27:23.750Z,98.46
2022-09-03T02:28:23.701Z,99.03
2022-09-03T02:29:23.595Z,99.51
2022-09-03T02:30:23.510Z,98.65
2022-09-03T02:31:23.483Z,98.36
2022-09-03T02:32:23.350Z,99.22
2022-09-03T02:33:23.274Z,99.60
2022-09-03T02:34:23.209Z,99.69
2022-09-03T02:35:23.112Z,99.99
2022-09-03T02:36:23.029Z,99.99
2022-09-03T02:37:22.955Z,99.51
2022-09-03T02:38:22.971Z,99.32
2022-09-03T02:39:22.845Z,98.65
2022-09-03T02:40:22.716Z,97.70
2022-09-03T02:41:22.638Z,97.22
2022-09-03T02:42:22.556Z,97.31
2022-09-03T02:43:26.005Z,97.22
2022-09-03T02:44:22.392Z,97.03
2022-09-03T02:45:22.314Z,97.22
2022-09-03T02:46:22.357Z,97.13
2022-09-03T02:47:22.164Z,97.22
2022-09-03T02:48:22.115Z,97.70
2022-09-03T02:49:21.997Z,98.46
2022-09-03T02:50:21.919Z,98.18
2022-09-03T02:51:21.840Z,98.65
2022-09-03T02:52:21.761Z,98.55
2022-09-03T02:53:21.677Z,98.46
2022-09-03T02:54:21.597Z,98.55
2022-09-03T02:55:21.524Z,98.65
2022-09-03T02:56:21.441Z,99.69
2022-09-03T02:57:27.493Z,98.94
2022-09-03T02:58:21.360Z,98.94
2022-09-03T02:59:21.207Z,98.74
2022-09-03T03:00:21.120Z,98.88
2022-09-03T03:01:23.818Z,99.08
2022-09-03T03:02:21.038Z,99.84
2022-09-03T03:03:20.882Z,99.74
2022-09-03T03:04:20.799Z,99.99
2022-09-03T03:05:20.731Z,99.99
2022-09-03T03:06:20.641Z,99.99
2022-09-03T03:07:20.560Z,99.99
2022-09-03T03:08:20.486Z,99.99
2022-09-03T03:09:20.404Z,99.99
2022-09-03T03:10:20.325Z,99.99
2022-09-03T03:11:20.242Z,99.99
2022-09-03T03:12:20.160Z,99.99
2022-09-03T03:13:20.097Z,99.99
2022-09-03T03:14:20.003Z,99.99
2022-09-03T03:15:19.926Z,99.99
2022-09-03T03:16:19.901Z,99.99
2022-09-03T03:17:19.767Z,99.99
2022-09-03T03:18:19.751Z,99.99
2022-09-03T03:19:19.612Z,99.99
2022-09-03T03:20:19.531Z,99.99
2022-09-03T03:21:19.445Z,99.60
2022-09-03T03:22:19.363Z,99.51
2022-09-03T03:23:19.292Z,99.79
2022-09-03T03:24:19.208Z,99.51
2022-09-03T03:25:19.125Z,98.84
2022-09-03T03:26:19.050Z,98.03
2022-09-03T03:27:18.973Z,98.60
2022-09-03T03:28:19.000Z,97.36
2022-09-03T03:29:18.806Z,96.79
2022-09-03T03:30:18.732Z,97.46
2022-09-03T03:31:18.729Z,98.03
2022-09-03T03:32:18.565Z,97.65
2022-09-03T03:33:18.489Z,97.17
2022-09-03T03:34:18.408Z,98.60
2022-09-03T03:35:18.330Z,98.41
2022-09-03T03:36:18.246Z,97.74
2022-09-03T03:37:18.170Z,98.03
2022-09-03T03:38:18.094Z,97.74
2022-09-03T03:39:18.047Z,98.60
2022-09-03T03:40:17.927Z,99.36
2022-09-03T03:41:17.851Z,99.93
2022-09-03T03:42:17.779Z,99.99
2022-09-03T03:43:17.689Z,99.99
2022-09-03T03:44:17.610Z,99.99
2022-09-03T03:45:17.532Z,99.17
2022-09-03T03:46:17.490Z,99.93
2022-09-03T03:47:17.371Z,99.99
2022-09-03T03:48:17.291Z,99.99
2022-09-03T03:49:17.213Z,99.99
2022-09-03T03:50:17.136Z,99.99
2022-09-03T03:51:17.051Z,99.99
2022-09-03T03:52:16.971Z,99.99
2022-09-03T03:53:16.892Z,99.99
2022-09-03T03:54:17.591Z,99.99
2022-09-03T03:55:16.742Z,99.99
2022-09-03T03:56:16.652Z,99.99
2022-09-03T03:57:16.572Z,99.99
2022-09-03T03:58:16.489Z,99.99
2022-09-03T03:59:16.414Z,99.99
2022-09-03T04:00:16.331Z,99.99
2022-09-03T04:01:16.347Z,99.99
2022-09-03T04:02:16.204Z,99.99
2022-09-03T04:03:16.094Z,99.99
2022-09-03T04:04:16.013Z,99.99
2022-09-03T04:05:15.930Z,99.99
2022-09-03T04:06:15.852Z,99.99
2022-09-03T04:07:15.771Z,99.99
2022-09-03T04:08:15.730Z,99.99
2022-09-03T04:09:15.614Z,99.99
2022-09-03T04:10:15.529Z,99.99
2022-09-03T04:11:15.454Z,99.99
2022-09-03T04:12:15.371Z,99.99
2022-09-03T04:13:15.291Z,99.99
2022-09-03T04:14:15.211Z,99.99
2022-09-03T04:15:15.138Z,99.99
2022-09-03T04:16:15.090Z,99.99
2022-09-03T04:17:14.972Z,99.99
2022-09-03T04:18:14.940Z,99.99
2022-09-03T04:19:14.812Z,99.99
2022-09-03T04:20:14.731Z,99.99
2022-09-03T04:21:14.652Z,99.99
2022-09-03T04:22:14.573Z,99.99
2022-09-03T04:23:14.492Z,99.99
2022-09-03T04:24:14.411Z,99.99
2022-09-03T04:25:14.339Z,99.99
2022-09-03T04:26:14.249Z,99.99
2022-09-03T04:27:14.171Z,99.99
2022-09-03T04:28:14.092Z,99.99
2022-09-03T04:29:14.014Z,99.99
2022-09-03T04:30:13.944Z,99.99
2022-09-03T04:31:13.906Z,99.99
2022-09-03T04:32:13.774Z,99.99
2022-09-03T04:33:16.173Z,99.99
2022-09-03T04:34:13.616Z,99.99
2022-09-03T04:35:13.538Z,99.99
2022-09-03T04:36:13.454Z,99.99
2022-09-03T04:37:13.377Z,99.99
2022-09-03T04:38:13.296Z,99.99
2022-09-03T04:39:13.218Z,99.99
2022-09-03T04:40:13.132Z,99.99
2022-09-03T04:41:13.061Z,99.99
2022-09-03T04:42:12.972Z,99.99
2022-09-03T04:43:12.897Z,99.99
2022-09-03T04:44:12.822Z,99.99
2022-09-03T04:45:12.734Z,99.99
2022-09-03T04:46:16.098Z,99.99
2022-09-03T04:47:12.577Z,99.99
2022-09-03T04:48:12.495Z,99.99
2022-09-03T04:49:12.419Z,99.99
2022-09-03T04:50:12.335Z,99.99
2022-09-03T04:51:12.259Z,99.99
2022-09-03T04:52:12.176Z,99.99
2022-09-03T04:53:12.095Z,99.99
2022-09-03T04:54:12.021Z,99.99
2022-09-03T04:55:11.937Z,99.99
2022-09-03T04:56:11.865Z,99.99
2022-09-03T04:57:11.781Z,99.99
2022-09-03T04:58:11.701Z,99.99
2022-09-03T04:59:11.628Z,99.99
2022-09-03T05:00:11.538Z,99.99
2022-09-03T05:01:11.554Z,99.99
2022-09-03T05:02:11.434Z,99.99
2022-09-03T05:03:11.299Z,99.99
2022-09-03T05:04:11.221Z,99.99
2022-09-03T05:05:11.141Z,99.99
2022-09-03T05:06:11.066Z,99.99
2022-09-03T05:07:10.986Z,99.99
2022-09-03T05:08:10.903Z,99.99
2022-09-03T05:09:10.822Z,99.99
2022-09-03T05:10:10.754Z,99.99
2022-09-03T05:11:10.668Z,99.99
2022-09-03T05:12:10.586Z,99.99
2022-09-03T05:13:10.503Z,99.99
2022-09-03T05:14:10.422Z,99.99
2022-09-03T05:15:10.342Z,99.99
2022-09-03T05:16:10.325Z,99.99
2022-09-03T05:17:10.184Z,99.99
2022-09-03T05:18:10.108Z,99.99
2022-09-03T05:19:10.024Z,99.99
2022-09-03T05:20:09.951Z,99.99
2022-09-03T05:21:09.870Z,99.99
2022-09-03T05:22:09.786Z,99.99
2022-09-03T05:23:09.714Z,99.99
2022-09-03T05:24:09.627Z,99.99
2022-09-03T05:25:09.651Z,99.99
2022-09-03T05:26:10.953Z,99.99
2022-09-03T05:27:09.389Z,99.99
2022-09-03T05:28:09.308Z,99.99
2022-09-03T05:29:09.226Z,99.99
2022-09-03T05:30:09.148Z,99.99
2022-09-03T05:31:09.072Z,99.99
2022-09-03T05:32:08.993Z,99.99
2022-09-03T05:33:08.919Z,99.99
2022-09-03T05:34:08.828Z,99.99
2022-09-03T05:35:09.299Z,99.99
2022-09-03T05:36:08.672Z,99.99
2022-09-03T05:37:08.593Z,99.99
2022-09-03T05:38:08.508Z,99.99
2022-09-03T05:39:08.432Z,99.99
2022-09-03T05:40:08.356Z,99.99
2022-09-03T05:41:08.282Z,99.99
2022-09-03T05:42:08.192Z,99.99
2022-09-03T05:43:08.705Z,99.99
2022-09-03T05:44:08.037Z,99.99
2022-09-03T05:45:07.953Z,99.99
2022-09-03T05:46:07.924Z,99.99
2022-09-03T05:47:07.799Z,99.99
2022-09-03T05:48:07.716Z,99.99
2022-09-03T05:49:07.649Z,99.99
2022-09-03T05:50:07.555Z,99.99
2022-09-03T05:51:07.488Z,99.99
2022-09-03T05:52:07.396Z,99.99
2022-09-03T05:53:07.319Z,99.99
2022-09-03T05:54:07.239Z,99.99
2022-09-03T05:55:09.629Z,99.99
2022-09-03T05:56:07.077Z,99.99
2022-09-03T05:57:07.004Z,99.99
2022-09-03T05:58:06.918Z,99.99
2022-09-03T05:59:06.840Z,99.99
2022-09-03T06:00:06.763Z,99.99
2022-09-03T06:01:06.688Z,99.99
2022-09-03T06:02:06.674Z,99.99
2022-09-03T06:03:06.623Z,99.99
2022-09-03T06:04:06.443Z,99.99
2022-09-03T06:05:06.367Z,99.99
2022-09-03T06:06:06.283Z,99.99
2022-09-03T06:07:06.209Z,99.99
2022-09-03T06:08:06.128Z,99.99
2022-09-03T06:09:06.052Z,99.99
2022-09-03T06:10:05.983Z,99.99
2022-09-03T06:11:05.891Z,99.99
2022-09-03T06:12:05.813Z,99.99
2022-09-03T06:13:05.728Z,99.99
2022-09-03T06:14:05.657Z,99.99
2022-09-03T06:15:05.575Z,99.99
2022-09-03T06:16:05.541Z,99.99
2022-09-03T06:17:05.411Z,99.99
2022-09-03T06:18:05.341Z,99.99
2022-09-03T06:19:05.254Z,99.99
2022-09-03T06:20:05.180Z,99.99
2022-09-03T06:21:05.099Z,99.99
2022-09-03T06:22:05.016Z,99.99
2022-09-03T06:23:04.939Z,99.99
2022-09-03T06:24:04.862Z,99.99
2022-09-03T06:25:04.782Z,99.99
2022-09-03T06:26:05.619Z,99.99
2022-09-03T06:27:04.625Z,99.99
2022-09-03T06:28:04.543Z,99.99
2022-09-03T06:29:04.463Z,99.99
2022-09-03T06:30:04.385Z,99.99
2022-09-03T06:31:04.308Z,99.99
2022-09-03T06:32:04.275Z,99.99
2022-09-03T06:33:04.148Z,99.99
2022-09-03T06:34:04.459Z,99.99
2022-09-03T06:35:03.998Z,99.99
2022-09-03T06:36:08.533Z,99.99
2022-09-03T06:37:03.830Z,99.99
2022-09-03T06:38:03.753Z,99.99
2022-09-03T06:39:03.676Z,99.99
2022-09-03T06:40:03.665Z,99.99
2022-09-03T06:41:03.521Z,99.99
2022-09-03T06:42:03.441Z,99.99
2022-09-03T06:43:03.357Z,99.99
2022-09-03T06:44:03.606Z,99.18
2022-09-03T06:45:03.205Z,99.99
2022-09-03T06:46:03.190Z,98.75
2022-09-03T06:47:03.041Z,97.56
2022-09-03T06:48:02.961Z,97.89
2022-09-03T06:49:02.895Z,98.37
2022-09-03T06:50:02.809Z,98.28
2022-09-03T06:51:02.729Z,97.80
2022-09-03T06:52:02.648Z,97.42
2022-09-03T06:53:02.568Z,96.32
2022-09-03T06:54:02.498Z,96.03
2022-09-03T06:55:02.409Z,95.27
2022-09-03T06:56:02.332Z,95.27
2022-09-03T06:57:02.255Z,94.98
2022-09-03T06:58:02.179Z,94.51
2022-09-03T06:59:02.097Z,92.88
2022-09-03T07:00:02.021Z,93.16
2022-09-03T07:01:02.096Z,92.50
2022-09-03T07:02:01.984Z,91.88
2022-09-03T07:03:01.781Z,91.20
2022-09-03T07:04:01.707Z,92.07
2022-09-03T07:05:01.623Z,90.82
2022-09-03T07:06:01.548Z,90.25
2022-09-03T07:07:01.467Z,89.48
2022-09-03T07:08:01.394Z,89.01
2022-09-03T07:09:01.311Z,89.96
2022-09-03T07:10:01.232Z,91.16
2022-09-03T07:11:01.160Z,90.01
2022-09-03T07:12:01.081Z,88.38
2022-09-03T07:13:00.997Z,87.81
2022-09-03T07:14:00.922Z,88.38
2022-09-03T07:15:00.837Z,88.19
2022-09-03T07:16:00.810Z,88.19
2022-09-03T07:17:00.683Z,89.19
2022-09-03T07:18:00.607Z,88.33
2022-09-03T07:19:00.530Z,87.76
2022-09-03T07:20:00.454Z,86.80
2022-09-03T07:21:00.373Z,86.13
2022-09-03T07:22:00.295Z,86.51
2022-09-03T07:23:00.219Z,86.41
2022-09-03T07:24:00.135Z,86.13
2022-09-03T07:25:00.157Z,86.13
2022-09-03T07:26:00.031Z,86.90
2022-09-03T07:26:59.903Z,86.90
2022-09-03T07:27:59.824Z,86.90
2022-09-03T07:28:59.765Z,87.27
2022-09-03T07:29:59.674Z,86.80
2022-09-03T07:30:59.591Z,86.61
2022-09-03T07:31:59.560Z,85.46
2022-09-03T07:32:59.431Z,84.55
2022-09-03T07:33:59.356Z,84.83
2022-09-03T07:34:59.276Z,84.31
2022-09-03T07:35:59.205Z,84.16
2022-09-03T07:36:59.123Z,84.45
2022-09-03T07:37:59.044Z,84.16
2022-09-03T07:38:58.965Z,84.26
2022-09-03T07:39:58.956Z,84.55
2022-09-03T07:40:58.812Z,84.64
2022-09-03T07:41:58.736Z,84.64
2022-09-03T07:42:58.656Z,83.97
2022-09-03T07:43:58.591Z,83.39
2022-09-03T07:44:58.502Z,83.30
2022-09-03T07:45:58.423Z,82.53
2022-09-03T07:46:58.383Z,82.43
2022-09-03T07:47:58.267Z,83.01
2022-09-03T07:48:58.188Z,82.43
2022-09-03T07:49:58.116Z,82.09
2022-09-03T07:50:58.036Z,82.67
2022-09-03T07:51:57.955Z,82.67
2022-09-03T07:52:57.878Z,82.19
2022-09-03T07:53:57.801Z,82.00
2022-09-03T07:54:57.736Z,82.19
2022-09-03T07:55:57.651Z,82.29
2022-09-03T07:56:57.619Z,81.43
2022-09-03T07:57:57.492Z,81.33
2022-09-03T07:58:57.425Z,79.89
2022-09-03T07:59:57.342Z,81.23
2022-09-03T08:00:57.369Z,81.33
2022-09-03T08:01:57.186Z,80.47
2022-09-03T08:02:57.106Z,79.80
2022-09-03T08:03:57.066Z,79.60
2022-09-03T08:04:56.956Z,79.51
2022-09-03T08:05:56.877Z,79.41
2022-09-03T08:06:56.798Z,79.83
2022-09-03T08:07:56.715Z,79.51
2022-09-03T08:08:58.755Z,79.93
2022-09-03T08:09:56.913Z,80.32
2022-09-03T08:10:56.487Z,79.55
2022-09-03T08:11:56.407Z,79.45
2022-09-03T08:12:56.328Z,79.64
2022-09-03T08:13:56.254Z,79.64
2022-09-03T08:14:56.177Z,79.45
2022-09-03T08:15:56.192Z,79.26
2022-09-03T08:16:56.017Z,77.92
2022-09-03T08:17:55.943Z,78.40
2022-09-03T08:18:55.866Z,78.05
2022-09-03T08:19:55.791Z,77.58
2022-09-03T08:20:55.714Z,78.15
2022-09-03T08:21:55.638Z,77.95
2022-09-03T08:22:55.666Z,78.05
2022-09-03T08:23:55.484Z,78.82
2022-09-03T08:24:55.403Z,79.34
2022-09-03T08:25:55.329Z,77.23
2022-09-03T08:26:55.249Z,76.84
2022-09-03T08:27:55.171Z,76.94
2022-09-03T08:28:55.094Z,76.27
2022-09-03T08:29:55.018Z,76.94
2022-09-03T08:30:54.939Z,76.56
2022-09-03T08:31:54.899Z,76.75
2022-09-03T08:32:54.789Z,76.27
2022-09-03T08:33:54.712Z,76.31
2022-09-03T08:34:54.634Z,76.75
2022-09-03T08:35:54.560Z,76.46
2022-09-03T08:36:54.478Z,77.36
2022-09-03T08:37:56.774Z,77.56
2022-09-03T08:38:54.327Z,76.88
2022-09-03T08:39:54.291Z,76.50
2022-09-03T08:40:54.178Z,75.54
2022-09-03T08:41:54.100Z,75.35
2022-09-03T08:42:54.021Z,75.35
2022-09-03T08:43:53.943Z,74.96
2022-09-03T08:44:53.867Z,74.48
2022-09-03T08:45:53.793Z,74.29
2022-09-03T08:46:53.795Z,76.40
2022-09-03T08:47:53.639Z,76.88
2022-09-03T08:48:53.561Z,75.15
2022-09-03T08:49:53.485Z,74.68
2022-09-03T08:50:53.409Z,74.87
2022-09-03T08:51:53.334Z,75.35
2022-09-03T08:52:53.254Z,75.54
2022-09-03T08:53:53.177Z,74.87
2022-09-03T08:54:53.099Z,74.58
2022-09-03T08:55:53.032Z,74.39
2022-09-03T08:56:52.948Z,74.87
2022-09-03T08:57:52.870Z,75.54
2022-09-03T08:58:52.801Z,74.48
2022-09-03T08:59:52.720Z,74.29
2022-09-03T09:00:52.653Z,75.54
2022-09-03T09:01:52.700Z,75.87
2022-09-03T09:02:52.566Z,76.54
2022-09-03T09:03:52.418Z,75.57
2022-09-03T09:04:52.343Z,74.71
2022-09-03T09:05:52.262Z,74.71
2022-09-03T09:06:52.182Z,74.62
2022-09-03T09:07:52.111Z,74.13
2022-09-03T09:08:52.033Z,74.90
2022-09-03T09:09:51.960Z,74.43
2022-09-03T09:10:51.881Z,73.94
2022-09-03T09:11:52.291Z,73.56
2022-09-03T09:12:51.729Z,72.99
2022-09-03T09:13:51.653Z,73.56
2022-09-03T09:14:51.574Z,73.18
2022-09-03T09:15:51.561Z,73.41
2022-09-03T09:16:51.427Z,73.31
2022-09-03T09:17:51.740Z,74.46
2022-09-03T09:18:51.269Z,75.04
2022-09-03T09:19:51.195Z,73.50
2022-09-03T09:20:51.119Z,74.27
2022-09-03T09:21:51.046Z,76.00
2022-09-03T09:22:50.972Z,75.32
2022-09-03T09:23:50.896Z,74.88
2022-09-03T09:24:50.815Z,74.37
2022-09-03T09:25:50.742Z,73.73
2022-09-03T09:26:50.669Z,73.44
2022-09-03T09:27:51.117Z,72.86
2022-09-03T09:28:52.036Z,72.38
2022-09-03T09:29:51.549Z,74.02
2022-09-03T09:30:50.395Z,73.47
2022-09-03T09:31:50.294Z,72.61
2022-09-03T09:32:50.212Z,72.71
2022-09-03T09:33:50.136Z,73.03
2022-09-03T09:34:52.599Z,71.40
2022-09-03T09:35:49.989Z,72.45
2022-09-03T09:36:49.909Z,71.88
2022-09-03T09:37:49.835Z,72.26
2022-09-03T09:38:49.756Z,70.43
2022-09-03T09:39:49.703Z,69.85
2022-09-03T09:40:49.616Z,70.05
2022-09-03T09:41:49.532Z,71.01
2022-09-03T09:42:49.461Z,71.78
2022-09-03T09:43:49.379Z,70.62
2022-09-03T09:44:49.304Z,69.85
2022-09-03T09:45:49.229Z,71.49
2022-09-03T09:46:54.083Z,72.74
2022-09-03T09:47:49.079Z,71.59
2022-09-03T09:48:49.004Z,71.01
2022-09-03T09:49:48.931Z,70.09
2022-09-03T09:50:48.852Z,71.43
2022-09-03T09:51:48.787Z,71.34
2022-09-03T09:52:50.738Z,71.43
2022-09-03T09:53:48.629Z,71.43
2022-09-03T09:54:48.555Z,71.04
2022-09-03T09:55:48.478Z,71.04
2022-09-03T09:56:48.424Z,69.41
2022-09-03T09:57:48.327Z,70.41
2022-09-03T09:58:48.257Z,71.47
2022-09-03T09:59:48.184Z,71.66
2022-09-03T10:00:48.112Z,71.50
2022-09-03T10:01:48.090Z,71.22
2022-09-03T10:02:48.024Z,69.48
2022-09-03T10:03:47.882Z,68.80
2022-09-03T10:04:47.805Z,68.80
2022-09-03T10:05:47.731Z,69.19
2022-09-03T10:06:47.658Z,68.32
2022-09-03T10:07:47.587Z,68.61
2022-09-03T10:08:47.505Z,69.48
2022-09-03T10:09:47.437Z,69.57
2022-09-03T10:10:47.357Z,69.48
2022-09-03T10:11:47.287Z,68.71
2022-09-03T10:12:47.214Z,69.13
2022-09-03T10:13:47.139Z,69.23
2022-09-03T10:14:47.065Z,68.90
2022-09-03T10:15:47.049Z,69.61
2022-09-03T10:16:46.912Z,69.80
2022-09-03T10:17:46.845Z,68.32
2022-09-03T10:18:46.765Z,68.80
2022-09-03T10:19:46.694Z,69.09
2022-09-03T10:20:46.620Z,69.03
2022-09-03T10:21:46.556Z,68.26
2022-09-03T10:22:56.478Z,67.78
2022-09-03T10:23:46.399Z,67.97
2022-09-03T10:24:46.334Z,69.42
2022-09-03T10:25:46.248Z,69.45
2022-09-03T10:26:46.176Z,71.73
2022-09-03T10:27:46.103Z,70.51
2022-09-03T10:28:46.025Z,69.74
2022-09-03T10:29:45.956Z,70.22
2022-09-03T10:30:45.895Z,70.51
2022-09-03T10:31:45.807Z,73.11
2022-09-03T10:32:48.373Z,72.15
2022-09-03T10:33:45.680Z,71.19
2022-09-03T10:34:45.622Z,71.38
2022-09-03T10:35:45.512Z,70.51
2022-09-03T10:36:45.439Z,69.51
2022-09-03T10:37:45.373Z,69.32
2022-09-03T10:38:45.296Z,69.61
2022-09-03T10:39:48.886Z,69.90
2022-09-03T10:40:45.144Z,70.25
2022-09-03T10:41:45.071Z,71.02
2022-09-03T10:42:44.997Z,71.41
2022-09-03T10:43:44.935Z,71.31
2022-09-03T10:44:44.856Z,71.22
2022-09-03T10:45:44.780Z,70.09
2022-09-03T10:46:44.785Z,71.34
2022-09-03T10:47:44.629Z,71.34
2022-09-03T10:48:44.669Z,71.44
2022-09-03T10:49:44.483Z,71.19
2022-09-03T10:50:44.416Z,70.51
2022-09-03T10:51:49.348Z,69.87
2022-09-03T10:52:44.269Z,68.62
2022-09-03T10:53:44.192Z,69.39
2022-09-03T10:54:44.134Z,70.54
2022-09-03T10:55:44.043Z,68.91
2022-09-03T10:56:43.973Z,67.81
2022-09-03T10:57:43.900Z,67.62
2022-09-03T10:58:43.831Z,68.19
2022-09-03T10:59:43.756Z,68.01
2022-09-03T11:00:43.678Z,68.29
2022-09-03T11:01:43.682Z,70.54
2022-09-03T11:02:43.599Z,70.54
2022-09-03T11:03:43.466Z,69.78
2022-09-03T11:04:43.387Z,69.97
2022-09-03T11:05:43.314Z,69.81
2022-09-03T11:06:43.244Z,67.27
2022-09-03T11:07:43.169Z,66.88
2022-09-03T11:08:43.097Z,67.46
2022-09-03T11:09:43.023Z,67.27
2022-09-03T11:10:42.951Z,66.59
2022-09-03T11:11:42.879Z,67.33
2022-09-03T11:12:42.806Z,67.62
2022-09-03T11:13:42.732Z,68.10
2022-09-03T11:14:42.662Z,69.93
2022-09-03T11:15:42.603Z,69.58
2022-09-03T11:16:42.519Z,68.97
2022-09-03T11:17:42.446Z,68.97
2022-09-03T11:18:42.371Z,69.00
2022-09-03T11:19:42.294Z,69.39
2022-09-03T11:20:42.222Z,68.87
2022-09-03T11:21:42.148Z,70.13
2022-09-03T11:22:42.080Z,69.35
2022-09-03T11:23:42.002Z,70.16
2022-09-03T11:24:41.935Z,69.78
2022-09-03T11:25:41.861Z,69.81
2022-09-03T11:26:41.786Z,71.26
2022-09-03T11:27:41.721Z,68.84
2022-09-03T11:28:41.642Z,65.88
2022-09-03T11:29:41.566Z,66.66
2022-09-03T11:30:41.543Z,66.17
2022-09-03T11:31:41.423Z,65.95
2022-09-03T11:32:41.350Z,66.72
2022-09-03T11:33:41.280Z,67.62
2022-09-03T11:34:41.227Z,66.17
2022-09-03T11:35:41.136Z,66.56
2022-09-03T11:36:43.695Z,67.91
2022-09-03T11:37:40.987Z,66.56
2022-09-03T11:38:40.919Z,68.10
2022-09-03T11:39:40.901Z,68.14
2022-09-03T11:40:40.774Z,66.01
2022-09-03T11:41:40.700Z,65.34
2022-09-03T11:42:40.646Z,65.05
2022-09-03T11:43:40.555Z,65.43
2022-09-03T11:44:42.748Z,65.98
2022-09-03T11:45:40.544Z,66.08
2022-09-03T11:46:40.337Z,67.33
2022-09-03T11:47:40.266Z,67.24
2022-09-03T11:48:40.199Z,68.33
2022-09-03T11:49:40.123Z,67.66
2022-09-03T11:50:40.056Z,65.98
2022-09-03T11:51:39.977Z,66.94
2022-09-03T11:52:39.908Z,66.17
2022-09-03T11:53:39.837Z,68.10
2022-09-03T11:54:39.762Z,68.68
2022-09-03T11:55:43.710Z,68.59
2022-09-03T11:56:39.622Z,67.04
2022-09-03T11:57:39.553Z,66.17
2022-09-03T11:58:39.474Z,66.56
2022-09-03T11:59:39.401Z,66.85
2022-09-03T12:00:39.333Z,66.56
2022-09-03T12:01:39.260Z,66.56
2022-09-03T12:02:39.472Z,66.75
2022-09-03T12:03:39.115Z,67.43
2022-09-03T12:04:39.153Z,68.07
2022-09-03T12:05:39.032Z,68.07
2022-09-03T12:06:38.903Z,69.71
2022-09-03T12:07:38.831Z,68.65
2022-09-03T12:08:38.755Z,68.75
2022-09-03T12:09:38.683Z,68.17
2022-09-03T12:10:38.620Z,69.42
2022-09-03T12:11:38.540Z,70.20
2022-09-03T12:12:38.482Z,67.91
2022-09-03T12:13:38.402Z,67.49
2022-09-03T12:14:38.328Z,67.59
2022-09-03T12:15:38.293Z,67.88
2022-09-03T12:16:38.183Z,67.20
2022-09-03T12:17:38.117Z,67.69
2022-09-03T12:18:38.034Z,69.32
2022-09-03T12:19:37.972Z,69.62
2022-09-03T12:20:37.902Z,69.42
2022-09-03T12:21:37.822Z,69.23
2022-09-03T12:22:37.748Z,71.26
2022-09-03T12:23:37.680Z,70.10
2022-09-03T12:24:38.313Z,69.42
2022-09-03T12:25:37.600Z,69.62
2022-09-03T12:26:37.462Z,69.42
2022-09-03T12:27:37.390Z,68.75
2022-09-03T12:28:37.321Z,68.26
2022-09-03T12:29:37.241Z,68.26
2022-09-03T12:30:37.197Z,68.46
2022-09-03T12:31:41.243Z,69.32
2022-09-03T12:32:37.044Z,69.52
2022-09-03T12:33:36.956Z,69.52
2022-09-03T12:34:36.883Z,70.14
2022-09-03T12:36:36.751Z,70.62
2022-09-03T12:39:00.726Z,68.78
2022-09-03T12:41:22.980Z,68.17
2022-09-03T12:41:36.439Z,68.46
2022-09-03T12:42:36.308Z,69.46
2022-09-03T12:43:38.175Z,71.20
2022-09-03T12:44:36.164Z,72.26
2022-09-03T12:46:36.062Z,71.48
2022-09-03T12:47:37.281Z,71.20
2022-09-03T12:48:35.875Z,70.90
2022-09-03T12:49:35.816Z,69.90
2022-09-03T12:50:35.733Z,69.62
2022-09-03T12:51:55.516Z,69.90
2022-09-03T12:52:35.591Z,69.81
2022-09-03T12:53:35.512Z,69.71
2022-09-03T12:54:35.442Z,70.39
2022-09-03T12:55:35.377Z,72.32